Terminal Aerodrome Forecast
Issued by NWS Hastings, NE

Home | Current Version | Previous Version | Text Only | Print | Product List | Glossary On
Versions: 1 2 3 4 5 6 7 8 9 10 11 12 13 14 15 16 17 18 19 20 21 22 23 24 25 26 27 28 29 30
000
FTUS43 KGID 161120
TAFGRI
TAF
KGRI 161120Z 1612/1712 32007KT P6SM SCT200
     FM161700 02008KT P6SM SCT200
     FM162000 06010KT P6SM FEW070 SCT150
     FM170300 09006KT P6SM BKN120=

USA.gov is the U.S. government's official web portal to all federal, state and local government web resources and services.